Contoocook River @ Riverhill, Nh

Contoocook River at River Hill
 Total Drainage Area: 760 sq. miles 
 Drainage Area Controlled by Corps Dams: 555 sq. miles (73%) 
 Warning Flow/Stage: ?? cfs / 14.7 feet 
 Flood Flow/Stage: ?? cfs / 18.0 feet 
Date Time
(Eastern)
Stage
(ft)
Flow
(cfs)
CSM
(cfs / sq. mi.)
Jun-16 07:30 pm 10.30 152 .2
Jun-16 06:30 pm 10.31 157 .2
Jun-16 05:30 pm 10.35 177 .2
Jun-16 04:30 pm 10.39 196 .3
Jun-16 03:30 pm 10.41 206 .3
Jun-16 02:30 pm 10.41 206 .3
Jun-16 01:30 pm 10.42 211 .3
Jun-16 12:30 pm 10.40 201 .3
Jun-16 11:30 am 10.43 216 .3
Jun-16 10:30 am 10.39 196 .3
Jun-16 09:30 am 10.36 181 .2
Jun-16 08:30 am 10.35 177 .2
Jun-16 07:30 am 10.36 181 .2
Jun-16 06:30 am 10.35 177 .2
Jun-16 05:30 am 10.35 177 .2
Jun-16 04:30 am 10.35 177 .2
Jun-16 03:30 am 10.34 172 .2
Jun-16 02:30 am 10.34 172 .2
Jun-16 01:30 am 10.33 167 .2
Jun-16 12:30 am 10.34 172 .2
Jun-15 11:30 pm 10.34 172 .2
Jun-15 10:30 pm 10.33 167 .2
Jun-15 09:30 pm 10.31 157 .2
Jun-15 08:30 pm 10.28 142 .2
Jun-15 07:30 pm 10.25 128 .2
Report Generated June 17, 2024 12:33 am